createdAt,value
2019-05-23T00:03:00.906Z,63.1
2019-05-23T00:07:58.266Z,63.3
2019-05-23T00:12:55.786Z,63.5
2019-05-23T00:17:52.854Z,63.5
2019-05-23T00:27:47.303Z,64.4
2019-05-23T00:32:44.081Z,64.5
2019-05-23T00:37:41.088Z,64.9
2019-05-23T00:42:38.640Z,65.1
2019-05-23T00:47:35.748Z,65.6
2019-05-23T00:52:32.957Z,65.7
2019-05-23T00:57:30.258Z,65
2019-05-23T01:02:27.015Z,65.1
2019-05-23T01:07:24.229Z,65.2
2019-05-23T01:12:21.422Z,65
2019-05-23T01:17:18.575Z,64.7
2019-05-23T01:22:15.833Z,64.9
2019-05-23T01:27:13.675Z,65.9
2019-05-23T01:32:11.089Z,65.8
2019-05-23T01:37:08.440Z,65.5
2019-05-23T01:42:05.778Z,65.3
2019-05-23T01:47:02.972Z,65.1
2019-05-23T01:52:00.235Z,65.1
2019-05-23T01:56:57.535Z,64.9
2019-05-23T02:01:55.074Z,65
2019-05-23T02:06:52.462Z,65.2
2019-05-23T02:11:49.790Z,65.9
2019-05-23T02:16:46.999Z,65.8
2019-05-23T02:21:44.696Z,65.5
2019-05-23T02:26:41.828Z,65.7
2019-05-23T02:31:39.799Z,65.8
2019-05-23T02:36:36.951Z,65.7
2019-05-23T02:41:34.548Z,66
2019-05-23T02:46:31.258Z,66.2
2019-05-23T02:51:28.335Z,66.1
2019-05-23T02:56:25.948Z,65.7
2019-05-23T03:01:23.544Z,65.6
2019-05-23T03:06:20.742Z,65.6
2019-05-23T03:11:18.448Z,66.1
2019-05-23T03:16:15.481Z,66.1
2019-05-23T03:21:12.689Z,65.5
2019-05-23T03:26:09.725Z,65.1
2019-05-23T03:31:26.276Z,65.1
2019-05-23T03:36:04.143Z,65.5
2019-05-23T03:41:01.882Z,65.4
2019-05-23T03:45:59.163Z,65.8
2019-05-23T03:50:56.770Z,65.5
2019-05-23T03:55:53.391Z,65.5
2019-05-23T04:00:50.562Z,65.5
2019-05-23T04:05:47.808Z,65.7
2019-05-23T04:10:44.930Z,66
2019-05-23T04:15:42.059Z,65.6
2019-05-23T04:20:39.469Z,65.5
2019-05-23T04:25:36.627Z,65.7
2019-05-23T04:30:34.422Z,65.6
2019-05-23T04:35:31.963Z,65.7
2019-05-23T04:40:29.833Z,66.1
2019-05-23T04:45:27.148Z,65.7
2019-05-23T04:50:23.968Z,65.6
2019-05-23T04:55:21.798Z,65.7
2019-05-23T05:00:19.400Z,65.8
2019-05-23T05:05:16.552Z,65
2019-05-23T05:10:13.731Z,65.6
2019-05-23T05:15:11.462Z,65.3
2019-05-23T05:20:09.317Z,65.3
2019-05-23T05:25:06.938Z,65.4
2019-05-23T05:30:04.362Z,66
2019-05-23T05:35:01.796Z,65.3
2019-05-23T05:39:59.424Z,66.6
2019-05-23T05:44:55.838Z,66.4
2019-05-23T05:49:53.066Z,66.7
2019-05-23T05:54:50.419Z,66.4
2019-05-23T05:59:47.944Z,66.4
2019-05-23T06:04:45.341Z,66.4
2019-05-23T06:09:42.566Z,66.8
2019-05-23T06:14:40.255Z,66.8
2019-05-23T06:19:37.454Z,67
2019-05-23T06:24:43.803Z,67.2
2019-05-23T06:29:32.478Z,67.1
2019-05-23T06:34:29.851Z,67
2019-05-23T06:39:27.376Z,66.1
2019-05-23T06:44:24.796Z,65.3
2019-05-23T06:49:22.128Z,64.7
2019-05-23T06:54:19.307Z,64.6
2019-05-23T06:59:17.175Z,63.9
2019-05-23T07:04:14.596Z,63.5
2019-05-23T07:09:12.302Z,62.9
2019-05-23T07:14:09.543Z,62.3
2019-05-23T07:19:06.518Z,62.3
2019-05-23T07:24:03.850Z,62
2019-05-23T07:29:01.808Z,63
2019-05-23T07:34:02.092Z,63.2
2019-05-23T07:38:56.561Z,62.6
2019-05-23T07:43:53.838Z,61.4
2019-05-23T07:48:51.451Z,61.4
2019-05-23T07:53:49.143Z,61.6
2019-05-23T07:58:46.798Z,60.3
2019-05-23T08:03:44.220Z,60.3
2019-05-23T08:08:40.939Z,59.7
2019-05-23T08:13:38.309Z,59.2
2019-05-23T08:18:35.879Z,58.8
2019-05-23T08:23:33.640Z,58.7
2019-05-23T08:28:30.875Z,58
2019-05-23T08:33:27.809Z,58.1
2019-05-23T08:38:25.013Z,57.5
2019-05-23T08:43:22.940Z,57.8
2019-05-23T08:48:20.723Z,56.7
2019-05-23T08:53:18.170Z,57.2
2019-05-23T08:58:15.925Z,56.9
2019-05-23T09:03:12.978Z,56.3
2019-05-23T09:08:10.667Z,56.7
2019-05-23T09:13:07.931Z,56.9
2019-05-23T09:18:05.234Z,56.5
2019-05-23T09:23:02.654Z,56.3
2019-05-23T09:28:00.229Z,55.5
2019-05-23T09:32:57.634Z,55.9
2019-05-23T09:37:55.136Z,51.8
2019-05-23T09:42:53.085Z,52.6
2019-05-23T09:47:51.368Z,52.1
2019-05-23T09:52:48.446Z,53
2019-05-23T09:57:45.853Z,52.4
2019-05-23T10:02:42.932Z,50.9
2019-05-23T10:07:40.518Z,51
2019-05-23T10:12:37.546Z,50.8
2019-05-23T10:17:35.213Z,48.3
2019-05-23T10:22:32.906Z,48.3
2019-05-23T10:27:30.034Z,48.9
2019-05-23T10:32:27.318Z,49.3
2019-05-23T10:37:24.595Z,47.4
2019-05-23T10:42:22.384Z,44.8
2019-05-23T10:47:19.564Z,45.4
2019-05-23T10:52:17.293Z,45.6
2019-05-23T10:57:14.733Z,44.2
2019-05-23T11:02:11.931Z,44.2
2019-05-23T11:07:09.638Z,43.1
2019-05-23T11:12:07.831Z,41.8
2019-05-23T11:17:04.379Z,40.5
2019-05-23T11:22:01.814Z,41.8
2019-05-23T11:26:59.777Z,40.6
2019-05-23T11:31:57.647Z,40.3
2019-05-23T11:36:55.161Z,39.4
2019-05-23T11:41:52.536Z,39.3
2019-05-23T11:46:50.030Z,39.8
2019-05-23T11:51:47.611Z,40.4
2019-05-23T11:56:44.999Z,39.5
2019-05-23T12:01:42.356Z,39.8
2019-05-23T12:06:54.081Z,39.4
2019-05-23T12:11:42.097Z,40.3
2019-05-23T12:16:34.464Z,40.1
2019-05-23T12:21:32.331Z,40.4
2019-05-23T12:26:29.490Z,40.1
2019-05-23T12:31:27.264Z,38.8
2019-05-23T12:36:24.545Z,37.7
2019-05-23T12:41:21.558Z,38.6
2019-05-23T12:46:19.492Z,38.7
2019-05-23T12:51:17.179Z,37
2019-05-23T12:56:15.017Z,37.3
2019-05-23T13:01:11.625Z,36.8
2019-05-23T13:06:09.246Z,36.3
2019-05-23T13:11:06.662Z,35.7
2019-05-23T13:16:04.520Z,38.7
2019-05-23T13:21:01.829Z,39.8
2019-05-23T13:25:59.430Z,39
2019-05-23T13:30:56.630Z,38.7
2019-05-23T13:35:54.255Z,38.8
2019-05-23T13:40:51.373Z,40.6
2019-05-23T13:45:48.652Z,41.7
2019-05-23T13:50:45.660Z,41.2
2019-05-23T13:55:42.872Z,42.5
2019-05-23T14:00:40.341Z,41.3
2019-05-23T14:05:37.551Z,40.3
2019-05-23T14:10:35.243Z,40.7
2019-05-23T14:15:32.916Z,41.7
2019-05-23T14:20:30.285Z,41.4
2019-05-23T14:25:27.920Z,40.9
2019-05-23T14:30:25.604Z,39.8
2019-05-23T14:35:22.881Z,39
2019-05-23T14:40:19.698Z,38.3
2019-05-23T14:45:17.099Z,38.8
2019-05-23T14:50:14.502Z,38.2
2019-05-23T14:55:12.197Z,38.5
2019-05-23T15:00:09.525Z,38.8
2019-05-23T15:05:06.776Z,39.8
2019-05-23T15:10:03.604Z,40
2019-05-23T15:15:01.428Z,40.5
2019-05-23T15:19:58.633Z,41.1
2019-05-23T15:24:55.991Z,41.4
2019-05-23T15:29:53.469Z,42
2019-05-23T15:34:50.932Z,41.3
2019-05-23T15:39:48.635Z,41.6
2019-05-23T15:44:45.728Z,41.9
2019-05-23T15:49:43.077Z,41.8
2019-05-23T15:54:41.428Z,41.3
2019-05-23T15:59:38.304Z,41.4
2019-05-23T16:04:35.985Z,41.2
2019-05-23T16:09:33.091Z,40.7
2019-05-23T16:14:30.200Z,40.8
2019-05-23T16:19:27.702Z,41.4
2019-05-23T16:24:25.044Z,41.4
2019-05-23T16:29:22.647Z,41.9
2019-05-23T16:34:19.671Z,42.4
2019-05-23T16:39:16.960Z,42.6
2019-05-23T16:44:14.035Z,42.8
2019-05-23T16:49:11.858Z,42.3
2019-05-23T16:54:09.445Z,41.7
2019-05-23T16:59:06.763Z,41.2
2019-05-23T17:04:04.048Z,41.3
2019-05-23T17:09:01.909Z,42.6
2019-05-23T17:13:59.440Z,42.4
2019-05-23T17:18:56.735Z,43
2019-05-23T17:23:54.130Z,43.4
2019-05-23T17:28:51.440Z,43.6
2019-05-23T17:33:48.582Z,44
2019-05-23T17:38:46.394Z,46.7
2019-05-23T17:43:44.104Z,45.3
2019-05-23T17:48:41.627Z,46.1
2019-05-23T17:53:38.749Z,47.3
2019-05-23T17:58:36.306Z,47.4
2019-05-23T18:03:32.797Z,47.9
2019-05-23T18:08:29.884Z,48.9
2019-05-23T18:13:27.036Z,48.9
2019-05-23T18:18:24.286Z,48.8
2019-05-23T18:23:21.602Z,48.9
2019-05-23T18:28:18.989Z,49
2019-05-23T18:33:16.508Z,49.1
2019-05-23T18:38:13.783Z,49.7
2019-05-23T18:43:11.550Z,50.1
2019-05-23T18:48:08.545Z,49.9
2019-05-23T18:53:05.787Z,50.1
2019-05-23T18:58:03.493Z,50.8
2019-05-23T19:03:01.190Z,50.8
2019-05-23T19:07:58.336Z,51
2019-05-23T19:12:55.958Z,50.9
2019-05-23T19:17:53.292Z,52.3
2019-05-23T19:22:50.426Z,52.2
2019-05-23T19:27:48.088Z,53.1
2019-05-23T19:32:45.173Z,53
2019-05-23T19:37:42.950Z,53
2019-05-23T19:42:40.494Z,52.6
2019-05-23T19:47:38.098Z,52.8
2019-05-23T19:52:35.142Z,52.7
2019-05-23T19:57:32.847Z,52.6
2019-05-23T20:02:29.926Z,52.2
2019-05-23T20:07:27.310Z,52.3
2019-05-23T20:12:24.366Z,52.6
2019-05-23T20:17:21.519Z,52.4
2019-05-23T20:22:18.606Z,52.2
2019-05-23T20:27:15.473Z,52.4
2019-05-23T20:32:12.709Z,53.1
2019-05-23T20:37:10.151Z,53.1
2019-05-23T20:42:11.189Z,54.5
2019-05-23T20:47:05.025Z,53.6
2019-05-23T20:52:02.297Z,53.7
2019-05-23T20:56:59.441Z,54
2019-05-23T21:01:56.690Z,54.4
2019-05-23T21:06:54.292Z,54.4
2019-05-23T21:11:51.962Z,54.4
2019-05-23T21:16:49.202Z,54.5
2019-05-23T21:21:46.950Z,54.8
2019-05-23T21:26:44.049Z,55.2
2019-05-23T21:31:41.617Z,54.9
2019-05-23T21:36:38.552Z,55.3
2019-05-23T21:41:36.205Z,55.7
2019-05-23T21:46:33.539Z,56
2019-05-23T21:51:30.555Z,56
2019-05-23T21:56:27.826Z,56.2
2019-05-23T22:01:25.531Z,56.4
2019-05-23T22:06:22.597Z,57
2019-05-23T22:11:20.254Z,57.1
2019-05-23T22:16:17.983Z,56.8
2019-05-23T22:21:14.999Z,56.8
2019-05-23T22:26:11.535Z,56.9
2019-05-23T22:31:08.793Z,57.6
2019-05-23T22:36:05.886Z,57.2
2019-05-23T22:41:03.055Z,57.4
2019-05-23T22:46:00.350Z,57.5
2019-05-23T22:50:58.053Z,57.6
2019-05-23T22:55:55.295Z,57.8
2019-05-23T23:00:52.858Z,57.5
2019-05-23T23:05:49.927Z,58.2
2019-05-23T23:10:47.604Z,59.1
2019-05-23T23:15:44.794Z,58.4
2019-05-23T23:20:45.316Z,58.9
2019-05-23T23:25:39.358Z,57.9
2019-05-23T23:30:36.710Z,58.7
2019-05-23T23:35:33.779Z,58.2
2019-05-23T23:40:31.486Z,57.7
2019-05-23T23:45:28.734Z,58.5
2019-05-23T23:50:26.061Z,58.5
2019-05-23T23:55:23.611Z,57.6
